Time;durP1;ratioP1;P1;durP2;ratioP2;P2;SDS_P1;SDS_P2;PMS_P1;PMS_P2;Temp;Humidity;BMP_temperature;BMP_pressure;BME280_temperature;BME280_humidity;BME280_pressure;Samples;Min_cycle;Max_cycle;Signal;HPM_P1;HPM_P2
2023/10/04 00:00:16;;;;;;;2.88;0.70;;;17.60;64.30;19.30;102224.00;;;;4949462;28;20187;-79
2023/10/04 00:02:45;;;;;;;2.38;0.60;;;17.60;64.20;19.30;102237.00;;;;4948943;28;20226;-80
2023/10/04 00:05:16;;;;;;;3.30;0.60;;;17.60;64.30;19.30;102226.00;;;;4951205;28;20291;-79
2023/10/04 00:07:46;;;;;;;1.92;0.77;;;17.60;64.30;19.30;102229.00;;;;4946130;29;20206;-80
2023/10/04 00:10:14;;;;;;;1.25;0.70;;;17.60;64.30;19.30;102229.00;;;;4950194;28;20230;-79
2023/10/04 00:12:43;;;;;;;2.97;1.02;;;17.60;64.40;19.30;102232.00;;;;4937386;28;20210;-79
2023/10/04 00:15:12;;;;;;;3.40;0.95;;;17.60;64.40;19.30;102234.00;;;;4946549;28;20211;-77
2023/10/04 00:17:41;;;;;;;2.35;0.80;;;17.60;64.40;19.30;102233.00;;;;4948061;28;20210;-77
2023/10/04 00:20:10;;;;;;;2.03;0.90;;;17.60;64.50;19.30;102247.00;;;;4946976;28;20195;-77
2023/10/04 00:22:40;;;;;;;4.82;1.48;;;17.50;64.40;19.30;102246.00;;;;4948406;28;20316;-77
2023/10/04 00:25:11;;;;;;;1.90;0.77;;;17.60;64.60;19.30;102247.00;;;;4944643;28;20200;-77
2023/10/04 00:27:41;;;;;;;4.30;0.90;;;17.50;64.50;19.20;102248.00;;;;4946739;28;20724;-77
2023/10/04 00:30:16;;;;;;;3.42;0.70;;;17.50;64.50;19.30;102253.00;;;;4948140;28;20273;-77
2023/10/04 00:32:46;;;;;;;2.38;0.80;;;17.50;64.50;19.30;102257.00;;;;4946451;28;20207;-77
2023/10/04 00:35:15;;;;;;;2.10;0.70;;;17.50;64.50;19.20;102262.00;;;;4947987;28;20187;-77
2023/10/04 00:37:46;;;;;;;2.63;0.88;;;17.50;64.60;19.20;102260.00;;;;4947805;28;20201;-77
2023/10/04 00:40:21;;;;;;;2.45;0.70;;;17.50;64.60;19.20;102262.00;;;;4951192;28;20304;-77
2023/10/04 00:42:49;;;;;;;1.58;0.90;;;17.50;64.50;19.20;102258.00;;;;4947818;28;20691;-77
2023/10/04 00:45:16;;;;;;;2.08;0.55;;;17.50;64.50;19.20;102263.00;;;;4959741;28;20195;-77
2023/10/04 00:47:47;;;;;;;2.30;0.93;;;17.50;64.50;19.20;102262.00;;;;4948505;28;20677;-77
2023/10/04 00:50:16;;;;;;;1.85;0.85;;;17.40;64.50;19.20;102260.00;;;;4948061;28;20215;-77
2023/10/04 00:52:53;;;;;;;2.30;0.90;;;17.40;64.50;19.10;102254.00;;;;4948311;28;20195;-77
2023/10/04 00:55:22;;;;;;;2.53;0.88;;;17.40;64.60;19.10;102260.00;;;;4948252;28;20199;-77
2023/10/04 00:57:52;;;;;;;2.95;0.88;;;17.40;64.50;19.10;102257.00;;;;4950355;28;20578;-77
2023/10/04 01:00:19;;;;;;;2.30;0.70;;;17.40;64.60;19.10;102262.00;;;;4962018;28;20222;-77
2023/10/04 01:02:47;;;;;;;2.78;0.70;;;17.40;64.60;19.10;102258.00;;;;4948392;28;20203;-77
2023/10/04 01:05:15;;;;;;;1.30;0.80;;;17.40;64.60;19.10;102263.00;;;;4948053;29;20199;-77
2023/10/04 01:07:47;;;;;;;2.55;1.20;;;17.30;65.30;19.00;102267.00;;;;4947267;28;20923;-77
2023/10/04 01:10:16;;;;;;;2.15;1.10;;;17.30;64.60;19.00;102269.00;;;;4948187;28;20201;-77
2023/10/04 01:12:46;;;;;;;2.70;0.73;;;17.30;64.70;19.00;102271.00;;;;4951321;28;20225;-77
2023/10/04 01:15:29;;;;;;;3.17;0.90;;;17.30;64.70;19.00;102271.00;;;;4947239;28;20203;-77
2023/10/04 01:17:57;;;;;;;3.67;1.40;;;17.20;64.70;19.00;102274.00;;;;4945951;28;20261;-77
2023/10/04 01:20:24;;;;;;;3.05;0.73;;;17.20;64.70;19.00;102270.00;;;;4945060;28;20203;-77
2023/10/04 01:22:54;;;;;;;0.75;0.43;;;17.20;64.70;18.90;102270.00;;;;4946827;28;20945;-77
2023/10/04 01:25:21;;;;;;;5.18;1.20;;;17.20;64.70;18.90;102279.00;;;;4947313;28;20256;-77
2023/10/04 01:27:48;;;;;;;2.85;0.68;;;17.20;64.90;18.90;102276.00;;;;4943896;28;20223;-77
2023/10/04 01:30:16;;;;;;;2.25;0.88;;;17.20;64.90;18.90;102282.00;;;;4959825;28;20693;-77
2023/10/04 01:32:44;;;;;;;2.25;1.08;;;17.20;65.00;18.90;102287.00;;;;4947491;28;20254;-77
2023/10/04 01:35:12;;;;;;;4.43;0.82;;;17.20;65.10;18.90;102286.00;;;;4945931;28;20619;-77
2023/10/04 01:37:40;;;;;;;1.58;1.10;;;17.10;65.00;18.90;102294.00;;;;4944758;28;20202;-77
2023/10/04 01:40:12;;;;;;;3.80;1.30;;;17.10;65.00;18.80;102298.00;;;;4946658;28;20234;-77
2023/10/04 01:42:41;;;;;;;6.53;1.30;;;17.10;65.10;18.90;102293.00;;;;4945459;28;20203;-77
2023/10/04 01:45:15;;;;;;;5.10;0.90;;;17.10;65.10;18.90;102292.00;;;;4945160;28;20201;-77
2023/10/04 01:47:43;;;;;;;3.17;0.90;;;17.10;65.90;18.90;102292.00;;;;4947912;28;20233;-77
2023/10/04 01:50:11;;;;;;;2.47;0.93;;;17.10;65.20;18.90;102282.00;;;;4943801;29;20202;-77
2023/10/04 01:52:38;;;;;;;3.03;0.93;;;17.10;65.30;18.90;102289.00;;;;4946570;28;20242;-77
2023/10/04 01:55:10;;;;;;;2.30;1.02;;;17.10;65.40;18.90;102291.00;;;;4947013;28;20761;-77
2023/10/04 01:57:41;;;;;;;3.63;1.50;;;17.10;65.40;18.90;102285.00;;;;4945258;28;20218;-77
2023/10/04 02:00:10;;;;;;;5.05;1.33;;;17.10;65.40;18.90;102286.00;;;;4945966;28;20746;-77
2023/10/04 02:02:38;;;;;;;1.55;0.85;;;17.10;65.50;18.90;102284.00;;;;4945215;28;20210;-78
2023/10/04 02:05:09;;;;;;;2.58;0.90;;;17.10;65.50;18.90;102278.00;;;;4997333;28;20215;-77
2023/10/04 02:07:39;;;;;;;3.13;1.10;;;17.10;65.50;18.90;102286.00;;;;4945508;28;20317;-77
2023/10/04 02:10:11;;;;;;;2.00;0.80;;;17.10;65.50;18.90;102275.00;;;;4948514;28;20211;-77
2023/10/04 02:12:38;;;;;;;1.77;0.73;;;17.10;65.50;18.90;102278.00;;;;4948168;28;20276;-78
2023/10/04 02:15:07;;;;;;;5.30;1.65;;;17.20;65.60;18.90;102286.00;;;;4948382;28;20966;-78
2023/10/04 02:17:34;;;;;;;6.43;1.75;;;17.10;65.60;18.90;102283.00;;;;4949388;28;20987;-78
2023/10/04 02:20:09;;;;;;;3.45;1.17;;;17.20;65.80;18.90;102286.00;;;;4949136;28;20211;-78
2023/10/04 02:22:36;;;;;;;2.60;0.90;;;17.20;65.70;18.90;102285.00;;;;4951173;28;20211;-78
2023/10/04 02:25:06;;;;;;;2.58;0.95;;;17.20;65.80;18.90;102282.00;;;;4949918;28;20210;-78
2023/10/04 02:27:34;;;;;;;2.42;1.30;;;17.20;65.80;18.90;102277.00;;;;4948820;28;20272;-78
2023/10/04 02:30:13;;;;;;;3.13;1.10;;;17.20;65.80;18.90;102280.00;;;;4949980;28;20310;-78
2023/10/04 02:32:41;;;;;;;2.60;1.17;;;17.20;65.80;18.90;102282.00;;;;4947940;28;20698;-78
2023/10/04 02:35:10;;;;;;;3.80;1.20;;;17.20;65.80;18.90;102277.00;;;;4949310;28;20200;-78
2023/10/04 02:37:37;;;;;;;2.38;0.98;;;17.20;65.90;18.90;102285.00;;;;4950260;28;20203;-78
2023/10/04 02:40:14;;;;;;;2.05;0.90;;;17.20;65.90;18.90;102292.00;;;;4976287;28;20712;-78
2023/10/04 02:42:44;;;;;;;4.68;1.10;;;17.20;65.80;18.90;102290.00;;;;4949108;28;20730;-78
2023/10/04 02:45:18;;;;;;;2.58;1.15;;;17.20;65.80;18.90;102293.00;;;;4949706;28;20214;-78
2023/10/04 02:47:48;;;;;;;3.30;1.20;;;17.20;65.80;18.90;102304.00;;;;4948602;28;20712;-78
2023/10/04 02:50:17;;;;;;;3.55;1.30;;;17.20;65.90;18.90;102298.00;;;;4950163;28;20226;-78
2023/10/04 02:52:44;;;;;;;2.97;1.52;;;17.20;65.80;18.90;102293.00;;;;4948814;28;20203;-78
2023/10/04 02:55:17;;;;;;;2.28;1.10;;;17.20;65.80;18.90;102302.00;;;;4953264;28;20203;-78
2023/10/04 02:57:49;;;;;;;3.15;1.10;;;17.20;65.80;18.90;102297.00;;;;4950511;29;20282;-78
2023/10/04 03:00:19;;;;;;;2.53;1.17;;;17.20;65.90;18.90;102301.00;;;;4949892;28;20187;-79
2023/10/04 03:02:49;;;;;;;5.72;2.00;;;17.20;65.90;18.90;102302.00;;;;4948160;28;20210;-78
2023/10/04 03:05:19;;;;;;;2.22;0.93;;;17.20;65.80;18.90;102301.00;;;;4949641;28;20207;-79
2023/10/04 03:07:48;;;;;;;3.35;1.00;;;17.20;65.90;18.90;102299.00;;;;4949196;28;21126;-78
2023/10/04 03:10:23;;;;;;;3.33;1.38;;;17.20;65.80;18.90;102302.00;;;;4950298;28;20268;-78
2023/10/04 03:12:53;;;;;;;2.30;1.10;;;17.20;65.90;18.80;102310.00;;;;4952698;28;20210;-78
2023/10/04 03:15:23;;;;;;;3.95;1.17;;;17.10;65.80;18.80;102306.00;;;;4949734;28;20681;-78
2023/10/04 03:17:51;;;;;;;2.78;0.95;;;17.20;65.80;18.80;102308.00;;;;4949449;28;20210;-78
2023/10/04 03:20:21;;;;;;;2.60;1.48;;;17.20;65.80;18.80;102309.00;;;;4949040;28;20298;-78
2023/10/04 03:22:49;;;;;;;3.63;1.50;;;17.10;65.70;18.80;102307.00;;;;4945706;28;20196;-79
2023/10/04 03:25:17;;;;;;;2.88;1.10;;;17.10;65.60;18.80;102296.00;;;;4949223;28;20196;-78
2023/10/04 03:27:46;;;;;;;7.07;1.70;;;17.10;65.60;18.80;102307.00;;;;4948067;28;20234;-78
2023/10/04 03:30:16;;;;;;;2.55;1.25;;;17.10;65.70;18.80;102304.00;;;;4960629;28;20223;-78
2023/10/04 03:32:45;;;;;;;1.70;0.88;;;17.10;65.80;18.80;102303.00;;;;4946605;28;20746;-78
2023/10/04 03:35:14;;;;;;;3.17;1.27;;;17.10;65.80;18.80;102305.00;;;;4950017;28;20710;-78
2023/10/04 03:37:54;;;;;;;5.40;1.38;;;17.10;65.90;18.80;102302.00;;;;4949456;28;20207;-78
2023/10/04 03:40:22;;;;;;;4.50;1.35;;;17.10;65.90;18.80;102308.00;;;;4946587;28;20926;-79
2023/10/04 03:42:48;;;;;;;2.75;0.93;;;17.10;65.90;18.80;102317.00;;;;4948051;28;20304;-78
2023/10/04 03:45:18;;;;;;;4.05;1.00;;;17.00;65.80;18.70;102311.00;;;;4949091;28;20210;-79
2023/10/04 03:47:50;;;;;;;2.70;1.20;;;17.00;65.80;18.70;102312.00;;;;4951730;28;20231;-78
2023/10/04 03:50:19;;;;;;;3.70;1.58;;;17.00;65.90;18.70;102312.00;;;;4930374;28;20204;-78
2023/10/04 03:52:47;;;;;;;5.65;1.20;;;17.00;65.80;18.70;102310.00;;;;4940877;28;20203;-78
2023/10/04 03:55:15;;;;;;;4.13;1.70;;;17.00;65.90;18.70;102303.00;;;;4949764;28;20271;-78
2023/10/04 03:57:43;;;;;;;4.68;1.40;;;17.00;65.90;18.70;102310.00;;;;4948989;28;20317;-78
2023/10/04 04:00:13;;;;;;;3.50;1.08;;;17.00;65.90;18.70;102313.00;;;;4948350;28;20211;-78
2023/10/04 04:02:43;;;;;;;2.35;1.10;;;16.90;65.90;18.60;102317.00;;;;4950477;28;20191;-78
2023/10/04 04:05:11;;;;;;;3.25;1.63;;;17.00;65.90;18.70;102320.00;;;;4948571;28;20207;-79
2023/10/04 04:07:38;;;;;;;2.30;1.02;;;17.00;65.90;18.60;102317.00;;;;4933043;28;21052;-78
2023/10/04 04:10:08;;;;;;;1.50;0.98;;;16.90;65.90;18.60;102321.00;;;;4948509;28;20213;-79
2023/10/04 04:12:36;;;;;;;3.75;1.23;;;16.90;65.90;18.60;102313.00;;;;4948693;28;20902;-78
2023/10/04 04:15:08;;;;;;;4.57;1.25;;;16.90;65.90;18.60;102319.00;;;;4949150;28;20199;-78
2023/10/04 04:17:36;;;;;;;2.90;1.15;;;16.90;65.90;18.60;102319.00;;;;4947488;28;20206;-78
2023/10/04 04:20:14;;;;;;;4.43;1.67;;;16.90;65.90;18.60;102306.00;;;;4961045;28;20204;-78
2023/10/04 04:22:43;;;;;;;5.60;1.70;;;16.80;65.90;18.60;102303.00;;;;4948783;28;20273;-78
2023/10/04 04:25:15;;;;;;;4.68;1.40;;;16.90;65.90;18.60;102304.00;;;;4948347;28;20735;-78
2023/10/04 04:27:45;;;;;;;4.40;1.63;;;16.80;65.90;18.60;102284.00;;;;4947404;28;20222;-78
2023/10/04 04:30:16;;;;;;;3.72;1.50;;;16.80;65.90;18.60;102288.00;;;;4948458;28;20219;-78
2023/10/04 04:32:47;;;;;;;4.25;1.77;;;16.80;65.90;18.50;102292.00;;;;4947557;28;20187;-78
2023/10/04 04:35:22;;;;;;;4.07;1.70;;;16.90;66.00;18.50;102296.00;;;;4947413;28;20199;-78
2023/10/04 04:37:54;;;;;;;2.75;0.98;;;16.80;66.00;18.50;102286.00;;;;4957297;28;20199;-78
2023/10/04 04:40:26;;;;;;;3.67;1.45;;;16.80;65.90;18.50;102272.00;;;;4939841;28;20226;-78
2023/10/04 04:43:00;;;;;;;2.85;1.30;;;16.80;66.00;18.50;102283.00;;;;4947259;28;20198;-78
2023/10/04 04:45:28;;;;;;;4.13;1.63;;;16.80;66.00;18.50;102293.00;;;;4947335;28;20237;-78
2023/10/04 04:47:57;;;;;;;3.55;1.20;;;16.80;66.00;18.50;102293.00;;;;4948742;28;20227;-78
2023/10/04 04:50:27;;;;;;;3.28;1.40;;;16.70;65.90;18.40;102291.00;;;;4948278;28;20199;-79
2023/10/04 04:52:54;;;;;;;5.15;1.45;;;16.70;66.00;18.40;102292.00;;;;4948768;28;20248;-78
2023/10/04 04:55:26;;;;;;;2.38;1.35;;;16.70;66.00;18.40;102302.00;;;;4950726;28;20294;-78
2023/10/04 04:57:56;;;;;;;4.22;1.50;;;16.70;66.00;18.40;102315.00;;;;4942147;28;20703;-78
2023/10/04 05:00:33;;;;;;;3.42;1.75;;;16.70;66.00;18.40;102315.00;;;;4948252;28;20263;-78
2023/10/04 05:03:02;;;;;;;5.88;1.52;;;16.70;66.00;18.40;102316.00;;;;4949230;28;20226;-78
2023/10/04 05:05:31;;;;;;;5.32;1.60;;;16.70;66.00;18.30;102330.00;;;;4946469;28;20580;-78
2023/10/04 05:07:58;;;;;;;5.18;1.90;;;16.70;66.10;18.30;102332.00;;;;4946175;28;20708;-78
2023/10/04 05:10:30;;;;;;;3.17;1.30;;;16.60;66.20;18.30;102345.00;;;;4949925;28;20195;-78
2023/10/04 05:12:57;;;;;;;6.05;1.48;;;16.60;66.20;18.30;102337.00;;;;4973514;28;20290;-78
2023/10/04 05:15:32;;;;;;;7.15;1.80;;;16.60;66.20;18.30;102328.00;;;;4946754;28;20265;-78
2023/10/04 05:18:03;;;;;;;2.67;1.52;;;16.60;66.20;18.30;102324.00;;;;4946077;29;20198;-79
2023/10/04 05:20:33;;;;;;;3.58;1.60;;;16.60;66.20;18.30;102332.00;;;;4946872;28;20199;-78
2023/10/04 05:23:00;;;;;;;5.38;1.67;;;16.60;66.20;18.30;102338.00;;;;4947559;28;20711;-79
2023/10/04 05:25:30;;;;;;;4.28;1.50;;;16.60;66.20;18.30;102329.00;;;;4946647;28;20202;-77
2023/10/04 05:28:03;;;;;;;3.38;1.45;;;16.60;66.20;18.20;102341.00;;;;4957849;28;20226;-77
2023/10/04 05:30:30;;;;;;;4.35;1.75;;;16.60;66.20;18.30;102350.00;;;;4942802;28;20280;-77
2023/10/04 05:32:58;;;;;;;3.83;1.95;;;16.50;66.00;18.30;102359.00;;;;4947820;28;20203;-77
2023/10/04 05:35:26;;;;;;;5.22;2.00;;;16.50;66.10;18.20;102361.00;;;;4944263;29;20196;-77
2023/10/04 05:37:54;;;;;;;2.78;1.67;;;16.50;66.10;18.20;102359.00;;;;4946555;28;20717;-77
2023/10/04 05:40:25;;;;;;;4.85;1.75;;;16.50;66.20;18.20;102355.00;;;;4946262;29;20230;-77
2023/10/04 05:42:54;;;;;;;4.70;1.73;;;16.50;66.20;18.20;102351.00;;;;4945231;28;20218;-77
2023/10/04 05:45:22;;;;;;;4.43;1.88;;;16.50;66.30;18.20;102351.00;;;;4955049;28;20214;-77
2023/10/04 05:47:50;;;;;;;4.55;1.48;;;16.50;66.30;18.20;102354.00;;;;4950892;28;20708;-77
2023/10/04 05:50:20;;;;;;;5.63;1.80;;;16.50;66.30;18.20;102364.00;;;;4947690;28;20278;-77
2023/10/04 05:52:47;;;;;;;6.55;1.52;;;16.50;66.30;18.20;102368.00;;;;4945300;28;20207;-77
2023/10/04 05:55:18;;;;;;;3.92;1.50;;;16.50;66.30;18.20;102369.00;;;;4944997;28;20584;-77
2023/10/04 05:57:50;;;;;;;2.88;1.52;;;16.50;66.40;18.20;102358.00;;;;4944600;28;20195;-77
2023/10/04 06:00:27;;;;;;;5.78;2.03;;;16.50;66.50;18.20;102356.00;;;;4944044;28;20629;-77
2023/10/04 06:02:56;;;;;;;5.68;1.85;;;16.50;66.50;18.20;102358.00;;;;4954147;28;20213;-77
2023/10/04 06:05:25;;;;;;;4.50;1.67;;;16.50;66.50;18.20;102367.00;;;;4946257;28;20202;-77
2023/10/04 06:07:54;;;;;;;3.90;1.77;;;16.40;66.40;18.20;102366.00;;;;4955085;28;20226;-77
2023/10/04 06:10:24;;;;;;;5.30;1.75;;;16.50;66.50;18.20;102375.00;;;;4947827;28;20211;-77
2023/10/04 06:12:53;;;;;;;3.45;1.77;;;16.40;66.50;18.20;102384.00;;;;4928183;28;20204;-77
2023/10/04 06:15:21;;;;;;;4.20;1.50;;;16.50;66.60;18.20;102377.00;;;;4946776;28;20215;-77
2023/10/04 06:17:48;;;;;;;4.78;2.00;;;16.50;66.60;18.20;102388.00;;;;4946622;28;20210;-77
2023/10/04 06:20:24;;;;;;;7.65;2.63;;;16.50;66.70;18.20;102393.00;;;;4957656;28;20195;-77
2023/10/04 06:22:57;;;;;;;5.20;2.00;;;16.40;66.60;18.10;102398.00;;;;4948397;28;20203;-77
2023/10/04 06:25:28;;;;;;;5.85;2.22;;;16.50;66.70;18.20;102393.00;;;;4953768;28;20653;-77
2023/10/04 06:27:58;;;;;;;3.28;1.70;;;16.40;66.70;18.20;102393.00;;;;4944076;28;20284;-77
2023/10/04 06:30:27;;;;;;;4.18;1.40;;;16.50;66.70;18.20;102389.00;;;;4946120;28;20226;-76
2023/10/04 06:32:56;;;;;;;2.83;1.58;;;16.50;66.80;18.20;102393.00;;;;4945082;28;20203;-76
2023/10/04 06:35:25;;;;;;;7.20;3.00;;;16.50;66.80;18.20;102389.00;;;;4945168;28;20669;-76
2023/10/04 06:37:54;;;;;;;6.63;1.88;;;16.50;66.90;18.20;102394.00;;;;4948921;28;20293;-77
2023/10/04 06:40:22;;;;;;;7.13;1.58;;;16.50;66.90;18.20;102397.00;;;;4947378;28;20239;-76
2023/10/04 06:42:55;;;;;;;4.63;2.10;;;16.50;67.00;18.20;102398.00;;;;4944288;28;20199;-76
2023/10/04 06:45:24;;;;;;;4.32;1.60;;;16.50;67.00;18.30;102394.00;;;;4946633;28;20213;-76
2023/10/04 06:47:54;;;;;;;7.28;2.08;;;16.60;67.10;18.30;102395.00;;;;4946179;28;20661;-76
2023/10/04 06:50:23;;;;;;;5.63;1.90;;;16.60;67.10;18.30;102398.00;;;;4942220;28;20206;-77
2023/10/04 06:52:51;;;;;;;3.65;1.67;;;16.60;67.20;18.30;102398.00;;;;4952356;28;20256;-77
2023/10/04 06:55:20;;;;;;;5.05;1.80;;;16.60;67.20;18.30;102401.00;;;;4948041;28;20756;-77
2023/10/04 06:57:50;;;;;;;3.53;2.20;;;16.70;67.30;18.40;102403.00;;;;4949569;28;20202;-77
2023/10/04 07:00:22;;;;;;;7.30;2.60;;;16.70;67.30;18.40;102406.00;;;;4952126;28;20199;-77
2023/10/04 07:02:54;;;;;;;3.97;1.98;;;16.70;67.40;18.40;102410.00;;;;4948067;28;20209;-76
2023/10/04 07:05:24;;;;;;;8.73;2.33;;;16.80;67.40;18.50;102405.00;;;;4945140;28;20195;-76
2023/10/04 07:07:53;;;;;;;6.70;2.30;;;16.80;67.40;18.50;102414.00;;;;4943409;28;20226;-77
2023/10/04 07:10:21;;;;;;;5.30;2.00;;;16.80;67.50;18.60;102410.00;;;;4949326;28;20309;-77
2023/10/04 07:12:52;;;;;;;5.57;2.25;;;16.90;67.60;18.60;102414.00;;;;4945746;28;20202;-77
2023/10/04 07:15:20;;;;;;;8.07;2.15;;;16.90;67.60;18.60;102411.00;;;;4946612;28;20603;-76
2023/10/04 07:17:48;;;;;;;4.22;1.80;;;16.90;67.60;18.70;102417.00;;;;4948908;28;20242;-76
2023/10/04 07:20:18;;;;;;;5.57;2.17;;;17.00;67.60;18.70;102422.00;;;;4954415;28;20195;-77
2023/10/04 07:22:48;;;;;;;4.40;2.08;;;17.00;67.60;18.80;102431.00;;;;4953560;28;20797;-77
2023/10/04 07:25:16;;;;;;;5.45;2.10;;;17.10;67.70;18.90;102429.00;;;;4955138;28;20191;-77
2023/10/04 07:27:45;;;;;;;7.47;2.35;;;17.10;67.70;18.90;102423.00;;;;4954478;28;20227;-77
2023/10/04 07:30:15;;;;;;;5.07;2.22;;;17.20;67.80;19.00;102432.00;;;;4955143;28;20218;-77
2023/10/04 07:32:43;;;;;;;3.80;1.90;;;17.20;67.90;19.10;102431.00;;;;4951166;28;20280;-77
2023/10/04 07:35:13;;;;;;;5.88;2.08;;;17.30;67.90;19.10;102427.00;;;;4957162;28;20202;-76
2023/10/04 07:37:41;;;;;;;8.25;2.15;;;17.40;67.90;19.20;102416.00;;;;4952182;28;20202;-77
2023/10/04 07:40:10;;;;;;;5.10;2.35;;;17.40;67.90;19.20;102426.00;;;;4949666;28;20231;-77
2023/10/04 07:42:39;;;;;;;5.03;2.13;;;17.50;67.80;19.30;102428.00;;;;4950097;28;20203;-77
2023/10/04 07:45:08;;;;;;;5.72;2.20;;;17.60;67.90;19.30;102438.00;;;;4962761;28;20324;-77
2023/10/04 07:47:38;;;;;;;6.68;2.15;;;17.60;67.90;19.40;102438.00;;;;4944865;28;20887;-77
2023/10/04 07:50:09;;;;;;;5.32;2.40;;;17.70;67.90;19.40;102434.00;;;;4950610;28;20187;-77
2023/10/04 07:52:37;;;;;;;7.63;2.25;;;17.80;67.90;19.60;102432.00;;;;4949997;28;21125;-77
2023/10/04 07:55:06;;;;;;;5.22;2.10;;;17.80;67.80;19.60;102452.00;;;;4952664;28;20712;-77
2023/10/04 07:57:35;;;;;;;9.23;2.22;;;17.90;67.70;19.60;102455.00;;;;4953379;28;20209;-76
2023/10/04 08:00:06;;;;;;;5.00;2.15;;;18.00;67.80;19.70;102447.00;;;;4946795;28;20665;-77
2023/10/04 08:02:33;;;;;;;3.08;2.05;;;18.00;67.80;19.80;102450.00;;;;4959271;28;20261;-77
2023/10/04 08:05:01;;;;;;;7.30;2.28;;;18.10;67.70;19.80;102451.00;;;;4941097;28;20234;-77
2023/10/04 08:07:28;;;;;;;6.38;2.70;;;18.10;67.70;19.90;102454.00;;;;4952714;28;20206;-77
2023/10/04 08:09:55;;;;;;;4.68;2.05;;;18.20;67.60;19.90;102452.00;;;;4953472;28;20879;-77
2023/10/04 08:12:23;;;;;;;9.13;2.53;;;18.30;67.60;20.00;102453.00;;;;4946979;28;20206;-77
2023/10/04 08:14:50;;;;;;;6.65;2.28;;;18.30;67.50;20.10;102456.00;;;;4944166;28;20214;-78
2023/10/04 08:17:18;;;;;;;6.28;2.65;;;18.40;67.50;20.10;102453.00;;;;4945545;28;20215;-77
2023/10/04 08:19:45;;;;;;;6.43;2.22;;;18.40;67.50;20.20;102461.00;;;;4957989;28;20203;-77
2023/10/04 08:22:15;;;;;;;5.15;2.17;;;18.50;67.50;20.20;102462.00;;;;4946669;28;20260;-77
2023/10/04 08:24:44;;;;;;;6.00;2.33;;;18.60;67.50;20.30;102461.00;;;;4948837;28;20203;-77
2023/10/04 08:27:11;;;;;;;5.13;1.95;;;18.60;67.40;20.30;102465.00;;;;4944735;28;20864;-77
2023/10/04 08:29:38;;;;;;;5.90;2.08;;;18.70;67.30;20.40;102468.00;;;;4946972;28;20238;-77
2023/10/04 08:32:05;;;;;;;6.13;2.38;;;18.70;67.30;20.40;102475.00;;;;4984338;28;20282;-77
2023/10/04 08:34:32;;;;;;;6.07;2.40;;;18.80;67.30;20.50;102467.00;;;;4945130;28;20199;-77
2023/10/04 08:36:59;;;;;;;9.20;2.67;;;18.80;67.20;20.50;102474.00;;;;4946070;28;20588;-77
2023/10/04 08:39:27;;;;;;;4.60;1.55;;;18.90;67.20;20.60;102475.00;;;;4945008;28;20604;-77
2023/10/04 08:41:54;;;;;;;4.45;1.70;;;18.90;67.20;20.70;102472.00;;;;4944580;29;20216;-77
2023/10/04 08:44:22;;;;;;;7.22;1.98;;;19.00;67.30;20.70;102476.00;;;;4943291;28;20199;-77
2023/10/04 08:46:53;;;;;;;7.95;2.72;;;19.00;67.20;20.80;102470.00;;;;4943138;28;20294;-77
2023/10/04 08:49:25;;;;;;;5.40;1.95;;;19.10;67.10;20.80;102470.00;;;;4946203;28;20314;-78
2023/10/04 08:52:05;;;;;;;5.85;2.15;;;19.20;67.10;20.80;102471.00;;;;4953705;28;20229;-77
2023/10/04 08:54:35;;;;;;;5.07;2.30;;;19.20;67.10;21.00;102477.00;;;;4945656;28;20188;-78
2023/10/04 08:57:13;;;;;;;7.85;2.10;;;19.30;67.00;21.00;102472.00;;;;4942973;29;20204;-77
2023/10/04 08:59:43;;;;;;;7.95;2.10;;;19.40;67.10;21.10;102467.00;;;;4945047;28;20234;-78
2023/10/04 09:02:15;;;;;;;7.45;2.83;;;19.50;66.90;21.10;102465.00;;;;4941687;28;20214;-78
2023/10/04 09:04:43;;;;;;;7.75;2.15;;;19.50;66.70;21.10;102470.00;;;;4948309;28;20575;-78
2023/10/04 09:07:11;;;;;;;6.07;2.42;;;19.50;66.50;21.20;102472.00;;;;4945712;28;20199;-77
2023/10/04 09:09:39;;;;;;;6.53;2.53;;;19.60;66.40;21.20;102466.00;;;;4946860;28;21102;-77
2023/10/04 09:12:07;;;;;;;5.60;1.83;;;19.60;66.60;21.30;102466.00;;;;4954693;28;20206;-77
2023/10/04 09:14:36;;;;;;;4.93;2.20;;;19.70;66.10;21.30;102470.00;;;;4952228;28;20206;-78
2023/10/04 09:17:06;;;;;;;8.65;2.35;;;19.70;66.00;21.30;102462.00;;;;4948303;28;20249;-80
2023/10/04 09:19:34;;;;;;;4.05;1.95;;;19.70;65.90;21.40;102464.00;;;;4947453;28;20198;-79
2023/10/04 09:22:06;;;;;;;9.02;2.03;;;19.80;66.00;21.40;102465.00;;;;4943693;28;20268;-79
2023/10/04 09:24:37;;;;;;;6.53;1.75;;;19.70;66.10;21.40;102454.00;;;;4946558;28;20256;-80
2023/10/04 09:27:05;;;;;;;7.70;2.28;;;19.80;66.10;21.50;102457.00;;;;4949810;28;20214;-79
2023/10/04 09:29:35;;;;;;;5.63;2.13;;;19.90;66.00;21.50;102458.00;;;;4944546;28;20253;-79
2023/10/04 09:32:03;;;;;;;4.90;2.28;;;19.90;65.80;21.60;102458.00;;;;4940343;28;20269;-78
2023/10/04 09:34:33;;;;;;;6.13;2.45;;;19.90;65.60;21.60;102464.00;;;;4942388;28;20199;-79
2023/10/04 09:37:00;;;;;;;6.65;2.70;;;20.00;65.50;21.60;102466.00;;;;4937846;28;20206;-79
2023/10/04 09:39:31;;;;;;;7.20;2.92;;;20.00;65.40;21.50;102470.00;;;;4945090;28;20222;-81
2023/10/04 09:42:03;;;;;;;7.82;2.60;;;20.00;65.00;21.60;102460.00;;;;4944425;28;20211;-80
2023/10/04 09:44:35;;;;;;;5.78;2.28;;;20.00;65.00;21.60;102469.00;;;;4949603;28;20310;-80
2023/10/04 09:47:05;;;;;;;3.40;2.08;;;20.00;65.00;21.60;102459.00;;;;4946136;28;20256;-81
2023/10/04 09:49:35;;;;;;;8.63;2.40;;;20.10;65.20;21.70;102468.00;;;;4945972;28;20203;-79
2023/10/04 09:52:07;;;;;;;8.07;3.33;;;20.10;65.30;21.70;102475.00;;;;4940876;28;20248;-80
2023/10/04 09:54:35;;;;;;;8.20;1.98;;;20.10;65.10;21.70;102477.00;;;;4936696;28;20251;-81
2023/10/04 09:57:07;;;;;;;8.93;2.65;;;20.20;65.20;21.70;102471.00;;;;4940604;28;20250;-80
2023/10/04 09:59:37;;;;;;;6.97;2.30;;;20.20;65.20;21.80;102469.00;;;;4944057;28;20577;-79
2023/10/04 10:02:09;;;;;;;6.55;2.05;;;20.20;65.20;21.80;102469.00;;;;4955236;28;20203;-80
2023/10/04 10:04:43;;;;;;;5.40;2.38;;;20.30;65.20;21.80;102473.00;;;;4943800;28;20213;-80
2023/10/04 10:07:16;;;;;;;4.80;2.08;;;20.30;65.10;21.90;102475.00;;;;4941054;28;20200;-80
2023/10/04 10:10:01;;;;;;;6.15;2.30;;;20.40;65.10;21.90;102472.00;;;;4942420;28;20231;-80
2023/10/04 10:12:30;;;;;;;6.70;2.35;;;20.40;64.90;22.00;102488.00;;;;4941853;28;20195;-80
2023/10/04 10:15:00;;;;;;;9.10;2.47;;;20.50;64.90;22.00;102480.00;;;;4943217;28;20304;-79
2023/10/04 10:17:27;;;;;;;7.95;2.05;;;20.50;64.70;22.00;102477.00;;;;4945647;28;20623;-81
2023/10/04 10:19:56;;;;;;;5.13;2.55;;;20.50;64.70;22.00;102469.00;;;;4940687;28;20669;-80
2023/10/04 10:22:23;;;;;;;6.15;2.88;;;20.50;64.60;22.00;102477.00;;;;4941229;28;20207;-79
2023/10/04 10:25:14;;;;;;;7.57;1.98;;;20.50;64.50;21.90;102465.00;;;;4940986;28;20214;-80
2023/10/04 10:27:43;;;;;;;5.13;2.03;;;20.50;64.30;22.10;102457.00;;;;4942597;28;20679;-81
2023/10/04 10:30:13;;;;;;;7.15;2.78;;;20.50;64.70;22.10;102458.00;;;;4942564;28;20264;-80
2023/10/04 10:32:53;;;;;;;7.43;2.35;;;20.60;64.70;22.10;102455.00;;;;4947034;28;20254;-80
2023/10/04 10:35:57;;;;;;;5.80;2.00;;;20.60;64.60;22.10;102463.00;;;;4947776;28;20219;-80
2023/10/04 10:38:48;;;;;;;3.55;2.13;;;20.70;64.40;22.20;102460.00;;;;4944740;28;20661;-80
2023/10/04 10:42:07;;;;;;;5.97;1.88;;;20.70;64.10;22.20;102456.00;;;;4946106;28;20195;-80
2023/10/04 10:44:37;;;;;;;7.35;2.45;;;20.80;64.10;22.40;102463.00;;;;4946882;28;20211;-80
2023/10/04 10:47:14;;;;;;;5.40;2.22;;;20.90;64.30;22.40;102452.00;;;;4946571;28;20709;-80
2023/10/04 10:49:50;;;;;;;5.32;2.25;;;20.90;64.30;22.50;102456.00;;;;4947927;28;20236;-79
2023/10/04 10:52:41;;;;;;;6.22;2.50;;;20.90;64.20;22.50;102459.00;;;;4941992;28;20235;-80
2023/10/04 10:55:16;;;;;;;4.13;2.08;;;21.00;63.80;22.60;102451.00;;;;4939956;28;20286;-79
2023/10/04 10:57:44;;;;;;;5.18;2.67;;;21.10;64.00;22.70;102439.00;;;;4942336;28;20202;-80
2023/10/04 11:00:19;;;;;;;8.10;2.50;;;21.20;63.80;22.80;102440.00;;;;4944262;28;20579;-79